Home > Products > Valid Products > TAF

000
FTUS43 KIWX 041100
TAFFWA
TAF
KFWA 041135Z 0412/0512 29010KT P6SM SCT025 BKN150
      TEMPO 0413/0416 BKN025
     FM041600 30011G18KT P6SM BKN025
     FM050000 31009KT P6SM BKN035=



000
FTUS43 KIWX 041100
TAFFWA
TAF
KFWA 041135Z 0412/0512 29010KT P6SM SCT025 BKN150
      TEMPO 0413/0416 BKN025
     FM041600 30011G18KT P6SM BKN025
     FM050000 31009KT P6SM BKN035=



000
FTUS43 KIWX 040500
TAFFWA
TAF
KFWA 040537Z 0406/0506 28012KT P6SM BKN015
     FM040800 29010KT P6SM SCT015 BKN025
     FM041100 30010KT P6SM BKN020
     FM041600 30012G18KT P6SM BKN025=



000
FTUS43 KIWX 040500
TAFFWA
TAF
KFWA 040537Z 0406/0506 28012KT P6SM BKN015
     FM040800 29010KT P6SM SCT015 BKN025
     FM041100 30010KT P6SM BKN020
     FM041600 30012G18KT P6SM BKN025=



000
FTUS43 KIWX 032300
TAFFWA
TAF
KFWA 032335Z 0400/0424 26016G24KT 5SM BR OVC007
     FM040500 27013KT P6SM OVC012
     FM041400 30010KT P6SM BKN020=



000
FTUS43 KIWX 032300
TAFFWA
TAF
KFWA 032335Z 0400/0424 26016G24KT 5SM BR OVC007
     FM040500 27013KT P6SM OVC012
     FM041400 30010KT P6SM BKN020=



000
FTUS43 KIWX 032200 AAA
TAFFWA
TAF AMD
KFWA 032231Z 0323/0418 26016G24KT 3SM -DZ BR OVC006
     FM040500 27013KT P6SM OVC012
     FM041400 30010KT P6SM BKN020=



000
FTUS43 KIWX 032200 AAA
TAFFWA
TAF AMD
KFWA 032231Z 0323/0418 26016G24KT 3SM -DZ BR OVC006
     FM040500 27013KT P6SM OVC012
     FM041400 30010KT P6SM BKN020=



000
FTUS43 KIWX 031700 RRA
TAFFWA
TAF
KFWA 031739Z 0318/0418 16014KT 2SM -FZDZ BR OVC008 WS020/23050KT
     FM031900 21016G24KT 2SM -RA BR OVC005 WS020/23050KT
     FM040300 28012G18KT P6SM -SHSN BKN015
     FM041400 30010KT P6SM BKN020=



000
FTUS43 KIWX 031700 RRA
TAFFWA
TAF
KFWA 031739Z 0318/0418 16014KT 2SM -FZDZ BR OVC008 WS020/23050KT
     FM031900 21016G24KT 2SM -RA BR OVC005 WS020/23050KT
     FM040300 28012G18KT P6SM -SHSN BKN015
     FM041400 30010KT P6SM BKN020=



000
FTUS43 KIWX 031700 AAA
TAFFWA
TAF AMD
KFWA 031707Z 0317/0412 16014KT 2SM -FZDZ BR OVC008 WS020/22045KT
     FM031900 21016G24KT 2SM -DZ BR OVC006 WS020/23050KT
     FM040300 28012G18KT P6SM -SHSN OVC012
     FM041000 30010KT P6SM BKN020=



000
FTUS43 KIWX 031100
TAFFWA
TAF
KFWA 031138Z 0312/0412 12007KT P6SM -FZRASNPL OVC060
      TEMPO 0312/0314 4SM -FZRASNPL
     FM031400 13012KT 5SM -FZRAPL OVC040
     FM031600 17015KT 3SM -FZRA BR OVC012 WS020/20035KT
     FM031900 21016G23KT 2SM -RA BR OVC015 WS020/23050KT
     FM040300 27013G18KT P6SM -SHSN OVC012=



000
FTUS43 KIWX 031100
TAFFWA
TAF
KFWA 031138Z 0312/0412 12007KT P6SM -FZRASNPL OVC060
      TEMPO 0312/0314 4SM -FZRASNPL
     FM031400 13012KT 5SM -FZRAPL OVC040
     FM031600 17015KT 3SM -FZRA BR OVC012 WS020/20035KT
     FM031900 21016G23KT 2SM -RA BR OVC015 WS020/23050KT
     FM040300 27013G18KT P6SM -SHSN OVC012=



000
FTUS43 KIWX 031100 AAA
TAFFWA
TAF AMD
KFWA 031121Z 0311/0406 12007KT P6SM -FZRASN OVC060
      TEMPO 0311/0313 5SM -FZRASNPL OVC040
     FM031300 13012KT 5SM -FZRAPL OVC040
     FM031500 17015KT 2SM -FZRA BR OVC012 WS020/20035KT
     FM031900 21016G23KT 1SM -RA BR OVC012 WS020/23050KT
     FM040300 27013G18KT P6SM -SN OVC012=



000
FTUS43 KIWX 030500
TAFFWA
TAF
KFWA 030531Z 0306/0406 13004KT P6SM BKN100 OVC200
     FM031200 13012KT 3SM -SNPL OVC050
     FM031500 17015KT 1SM -FZRA BR OVC006 WS020/20035KT
     FM031900 21016G23KT 1SM -RA BR OVC015 WS020/23050KT
     FM040300 27013G18KT 5SM -SN BR OVC012=



000
FTUS43 KIWX 030500
TAFFWA
TAF
KFWA 030531Z 0306/0406 13004KT P6SM BKN100 OVC200
     FM031200 13012KT 3SM -SNPL OVC050
     FM031500 17015KT 1SM -FZRA BR OVC006 WS020/20035KT
     FM031900 21016G23KT 1SM -RA BR OVC015 WS020/23050KT
     FM040300 27013G18KT 5SM -SN BR OVC012=



000
FTUS43 KIWX 022300
TAFFWA
TAF
KFWA 022338Z 0300/0324 VRB03KT P6SM SCT120 BKN250
     FM031000 13012KT 3SM -SN OVC080
     FM031300 15013KT 2SM -SNPL BR OVC015
     FM031600 17015KT 1SM -FZRA BR OVC006 WS020/20035KT
     FM032000 21016G23KT 1SM -RA BR OVC015 WS020/23050KT=



000
FTUS43 KIWX 021700
TAFFWA
TAF
KFWA 021730Z 0218/0318 23005KT P6SM SCT250
     FM022200 VRB03KT P6SM SCT100
     FM031000 12009KT P6SM OVC050
     FM031200 15010KT 2SM BR OVC015
      TEMPO 0312/0316 14015KT 1/2SM PL FG OVC009
     FM031600 16015KT 1SM FZRA BR OVC005 WS020/20035KT=



000
FTUS43 KIWX 021700
TAFFWA
TAF
KFWA 021730Z 0218/0318 23005KT P6SM SCT250
     FM022200 VRB03KT P6SM SCT100
     FM031000 12009KT P6SM OVC050
     FM031200 15010KT 2SM BR OVC015
      TEMPO 0312/0316 14015KT 1/2SM PL FG OVC009
     FM031600 16015KT 1SM FZRA BR OVC005 WS020/20035KT=



000
FTUS43 KIWX 021100 CCA
TAFFWA
TAF COR
KFWA 021136Z 0212/0312 27009KT P6SM SCT250
     FM022200 VRB03KT P6SM SCT100
     FM031000 12009KT P6SM OVC050=



000
FTUS43 KIWX 021100 CCA
TAFFWA
TAF COR
KFWA 021136Z 0212/0312 27009KT P6SM SCT250
     FM022200 VRB03KT P6SM SCT100
     FM031000 12009KT P6SM OVC050=



000
FTUS43 KIWX 021100
TAFFWA
TAF
KFWA 021121Z 0212/0312 27009KT P6SM SCT250
     FM022200 VRB03KT P6SM SCT100
     FM031000 12009KT P6SM OVC500=



000
FTUS43 KIWX 021100
TAFFWA
TAF
KFWA 021121Z 0212/0312 27009KT P6SM SCT250
     FM022200 VRB03KT P6SM SCT100
     FM031000 12009KT P6SM OVC500=



000
FTUS43 KIWX 020500
TAFFWA
TAF
KFWA 020540Z 0206/0306 26012KT P6SM SCT250
     FM021800 27006KT P6SM BKN030
     FM030000 15003KT P6SM OVC100=



000
FTUS43 KIWX 020500
TAFFWA
TAF
KFWA 020540Z 0206/0306 26012KT P6SM SCT250
     FM021800 27006KT P6SM BKN030
     FM030000 15003KT P6SM OVC100=



000
FTUS43 KIWX 020300 AAA
TAFFWA
TAF AMD
KFWA 020320Z 0203/0224 27010KT P6SM BKN015
     FM020600 28010KT P6SM SCT250
     FM021800 27006KT P6SM BKN030=



000
FTUS43 KIWX 020300 AAA
TAFFWA
TAF AMD
KFWA 020320Z 0203/0224 27010KT P6SM BKN015
     FM020600 28010KT P6SM SCT250
     FM021800 27006KT P6SM BKN030=



000
FTUS43 KIWX 012300
TAFFWA
TAF
KFWA 012320Z 0200/0224 26008KT P6SM BKN150
     FM020200 28008KT P6SM BKN025
     FM020900 28008KT P6SM SCT250
     FM021800 27006KT P6SM BKN030=



000
FTUS43 KIWX 012300
TAFFWA
TAF
KFWA 012320Z 0200/0224 26008KT P6SM BKN150
     FM020200 28008KT P6SM BKN025
     FM020900 28008KT P6SM SCT250
     FM021800 27006KT P6SM BKN030=



000
FTUS43 KIWX 012000 AAA
TAFFWA
TAF AMD
KFWA 012016Z 0120/0218 00000KT 4SM HZ SCT025 OVC080
     FM020500 26008KT P6SM SCT020
     FM020900 28008KT P6SM SCT250=



000
FTUS43 KIWX 012000 AAA
TAFFWA
TAF AMD
KFWA 012016Z 0120/0218 00000KT 4SM HZ SCT025 OVC080
     FM020500 26008KT P6SM SCT020
     FM020900 28008KT P6SM SCT250=



000
FTUS43 KIWX 011700
TAFFWA
TAF
KFWA 011740Z 0118/0218 11005KT 1SM -SN BR OVC025
     FM012200 26007KT P6SM OVC020
     FM020500 26008KT P6SM SCT020
     FM020900 28008KT P6SM SCT250=



000
FTUS43 KIWX 011700
TAFFWA
TAF
KFWA 011740Z 0118/0218 11005KT 1SM -SN BR OVC025
     FM012200 26007KT P6SM OVC020
     FM020500 26008KT P6SM SCT020
     FM020900 28008KT P6SM SCT250=



    US Dept of Commerce
    National Oceanic and Atmospheric Administration
    National Weather Service
    1325 East West Highway
    Silver Spring, MD 20910
    Page Author: NWS Internet Services Team
Disclaimer
Information Quality
Credits
Glossary
Privacy Policy
Freedom of Information Act (FOIA)
About Us
Career Opportunities